Time;durP1;ratioP1;P1;durP2;ratioP2;P2;SDS_P1;SDS_P2;PMS_P1;PMS_P2;Temp;Humidity;BMP_temperature;BMP_pressure;BME280_temperature;BME280_humidity;BME280_pressure;Samples;Min_cycle;Max_cycle;Signal;HPM_P1;HPM_P2
2022/05/08 00:00:31;;;;;;;17.88;4.97;;;8.30;99.90;;;;;;4977540;28;20046;-85
2022/05/08 00:02:58;;;;;;;13.85;4.55;;;8.20;99.90;;;;;;4993794;28;20054;-85
2022/05/08 00:05:24;;;;;;;20.27;4.93;;;8.30;99.90;;;;;;4993764;28;20133;-85
2022/05/08 00:07:50;;;;;;;15.88;4.85;;;8.30;99.90;;;;;;4994143;28;20458;-85
2022/05/08 00:10:16;;;;;;;16.17;4.40;;;8.50;99.90;;;;;;4993611;28;20133;-85
2022/05/08 00:12:41;;;;;;;16.15;4.95;;;8.20;99.90;;;;;;4993590;28;20062;-85
2022/05/08 00:15:07;;;;;;;14.82;4.35;;;8.20;99.90;;;;;;4993877;28;20046;-85
2022/05/08 00:17:36;;;;;;;17.45;4.90;;;8.10;99.90;;;;;;4993449;28;20481;-85
2022/05/08 00:20:03;;;;;;;11.60;3.95;;;8.30;99.90;;;;;;4977288;28;20046;-85
2022/05/08 00:22:29;;;;;;;25.70;4.45;;;8.00;99.90;;;;;;4993435;28;20042;-85
2022/05/08 00:24:56;;;;;;;13.77;4.18;;;7.90;99.90;;;;;;4993898;28;20054;-85
2022/05/08 00:27:22;;;;;;;11.10;4.05;;;7.90;99.90;;;;;;4976826;28;20050;-85
2022/05/08 00:29:47;;;;;;;20.65;4.40;;;7.80;99.90;;;;;;4977360;28;20398;-85
2022/05/08 00:32:13;;;;;;;15.52;3.78;;;7.70;99.90;;;;;;4993162;28;20038;-85
2022/05/08 00:34:39;;;;;;;19.23;4.45;;;7.70;99.90;;;;;;4993120;28;20047;-85
2022/05/08 00:37:07;;;;;;;14.05;4.40;;;7.60;99.90;;;;;;4993461;28;20466;-85
2022/05/08 00:39:33;;;;;;;17.25;4.22;;;7.50;99.90;;;;;;4994386;28;20053;-85
2022/05/08 00:42:00;;;;;;;15.55;4.20;;;7.70;99.90;;;;;;4993068;28;20042;-85
2022/05/08 00:44:26;;;;;;;17.17;4.43;;;7.50;99.90;;;;;;4992866;28;20108;-85
2022/05/08 00:46:51;;;;;;;18.30;4.00;;;7.70;99.90;;;;;;4992918;28;20058;-85
2022/05/08 00:49:17;;;;;;;19.50;5.13;;;7.50;99.90;;;;;;4992922;28;20050;-85
2022/05/08 00:51:47;;;;;;;15.60;4.70;;;7.30;99.90;;;;;;4993002;28;20078;-85
2022/05/08 00:54:13;;;;;;;15.63;4.18;;;7.40;99.90;;;;;;4993097;28;20056;-85
2022/05/08 00:56:40;;;;;;;21.48;4.68;;;7.40;99.90;;;;;;4992773;28;20038;-85
2022/05/08 00:59:05;;;;;;;15.95;4.28;;;7.30;99.90;;;;;;4976693;28;20104;-85
2022/05/08 01:01:31;;;;;;;16.30;3.97;;;7.30;99.90;;;;;;4993194;28;20090;-85
2022/05/08 01:03:57;;;;;;;14.25;3.92;;;7.20;99.90;;;;;;4993000;28;20046;-85
2022/05/08 01:06:22;;;;;;;19.70;4.28;;;7.50;99.90;;;;;;4992964;28;20457;-85
2022/05/08 01:08:50;;;;;;;20.25;4.10;;;7.20;99.90;;;;;;4992881;28;20053;-85
2022/05/08 01:11:17;;;;;;;18.40;4.50;;;7.20;99.90;;;;;;4992718;28;20082;-85
2022/05/08 01:13:44;;;;;;;14.93;4.18;;;7.20;99.90;;;;;;4992938;28;20137;-85
2022/05/08 01:16:20;;;;;;;18.75;4.25;;;7.20;99.90;;;;;;4978273;28;20085;-85
2022/05/08 01:18:48;;;;;;;14.95;4.55;;;7.30;99.90;;;;;;4996937;28;20042;-85
2022/05/08 01:21:16;;;;;;;16.27;4.50;;;7.60;99.90;;;;;;4980329;28;20046;-85
2022/05/08 01:23:42;;;;;;;13.82;4.20;;;7.80;99.90;;;;;;4980352;28;20054;-85
2022/05/08 01:26:11;;;;;;;18.70;4.22;;;7.40;99.90;;;;;;4996367;28;20046;-85
2022/05/08 01:28:37;;;;;;;18.23;4.15;;;7.20;99.90;;;;;;4996283;28;20097;-85
2022/05/08 01:31:03;;;;;;;14.30;4.28;;;7.50;99.90;;;;;;4980324;28;20046;-85
2022/05/08 01:33:29;;;;;;;13.85;4.90;;;7.20;99.90;;;;;;4996293;28;20046;-85
2022/05/08 01:35:56;;;;;;;16.80;4.22;;;7.20;99.90;;;;;;4996467;28;20449;-85
2022/05/08 01:38:23;;;;;;;19.10;4.05;;;7.40;99.90;;;;;;4996290;28;20146;-85
2022/05/08 01:40:50;;;;;;;15.60;3.92;;;7.10;99.90;;;;;;4996262;28;20038;-85
2022/05/08 01:43:16;;;;;;;20.00;4.45;;;7.00;99.90;;;;;;4998269;28;20125;-85
2022/05/08 01:45:42;;;;;;;13.05;3.88;;;7.00;99.90;;;;;;4999376;28;20161;-85
2022/05/08 01:48:23;;;;;;;18.88;4.55;;;7.10;99.90;;;;;;4999472;28;20042;-85
2022/05/08 01:50:50;;;;;;;15.73;4.43;;;6.90;99.90;;;;;;4983228;28;20049;-85
2022/05/08 01:53:18;;;;;;;21.10;4.47;;;6.90;99.90;;;;;;4999800;28;20053;-85
2022/05/08 01:55:44;;;;;;;11.68;4.15;;;6.90;99.90;;;;;;4982927;28;20041;-85
2022/05/08 01:58:09;;;;;;;16.48;4.68;;;7.40;99.90;;;;;;4999108;28;20061;-85
2022/05/08 02:00:35;;;;;;;14.23;4.22;;;6.90;99.90;;;;;;4999253;28;20033;-85
2022/05/08 02:03:03;;;;;;;14.40;4.60;;;6.90;99.90;;;;;;5016818;28;20489;-85
2022/05/08 02:05:31;;;;;;;18.83;4.53;;;6.90;99.90;;;;;;4983124;28;20050;-85
2022/05/08 02:07:57;;;;;;;17.55;4.72;;;6.80;99.90;;;;;;4998915;28;20088;-85
2022/05/08 02:10:24;;;;;;;15.88;4.10;;;6.80;99.90;;;;;;4998850;28;20046;-85
2022/05/08 02:12:49;;;;;;;16.48;4.50;;;6.80;99.90;;;;;;4982693;28;20077;-85
2022/05/08 02:15:15;;;;;;;15.05;4.18;;;6.80;99.90;;;;;;4998832;28;20086;-85
2022/05/08 02:17:41;;;;;;;22.17;5.38;;;6.80;99.90;;;;;;4982853;28;20120;-85
2022/05/08 02:20:08;;;;;;;14.73;4.68;;;7.40;99.90;;;;;;5016522;28;20037;-85
2022/05/08 02:22:35;;;;;;;18.15;4.63;;;6.80;99.90;;;;;;4998847;28;20042;-85
2022/05/08 02:25:01;;;;;;;17.45;4.63;;;7.30;99.90;;;;;;4998929;28;20520;-85
2022/05/08 02:27:33;;;;;;;14.63;4.18;;;6.70;99.90;;;;;;4998102;28;20041;-85
2022/05/08 02:29:59;;;;;;;16.42;4.45;;;6.70;99.90;;;;;;4998894;28;20042;-85
2022/05/08 02:32:24;;;;;;;17.42;4.30;;;7.30;99.90;;;;;;4998678;28;20543;-85
2022/05/08 02:34:50;;;;;;;18.63;5.03;;;6.90;99.90;;;;;;4998694;28;20061;-85
2022/05/08 02:37:16;;;;;;;17.70;4.72;;;6.90;99.90;;;;;;4998858;28;20056;-85
2022/05/08 02:39:41;;;;;;;18.88;5.25;;;6.70;99.90;;;;;;4982188;28;20081;-85
2022/05/08 02:42:12;;;;;;;18.98;4.60;;;6.50;99.90;;;;;;4998358;28;20038;-85
2022/05/08 02:44:37;;;;;;;18.27;5.07;;;6.50;99.90;;;;;;4998330;28;20069;-85
2022/05/08 02:47:03;;;;;;;19.00;4.80;;;6.40;99.90;;;;;;4982107;28;20041;-85
2022/05/08 02:49:29;;;;;;;19.85;4.97;;;6.50;99.90;;;;;;4998551;28;20489;-85
2022/05/08 02:51:55;;;;;;;12.25;4.93;;;6.40;99.90;;;;;;5015752;28;20485;-85
2022/05/08 02:54:20;;;;;;;15.52;4.75;;;6.40;99.90;;;;;;4998103;28;20034;-85
2022/05/08 02:59:35;;;;;;;13.88;4.35;;;6.40;99.90;;;;;;4998118;28;20111;-85
2022/05/08 03:02:01;;;;;;;12.45;4.45;;;6.40;99.90;;;;;;4998350;28;20129;-85
2022/05/08 03:04:27;;;;;;;16.55;4.95;;;6.40;99.90;;;;;;4998133;28;20053;-85
2022/05/08 03:06:52;;;;;;;18.02;4.90;;;6.40;99.90;;;;;;5015525;28;20042;-85
2022/05/08 03:09:18;;;;;;;20.38;4.47;;;6.40;99.90;;;;;;4981691;28;20505;-85
2022/05/08 03:11:44;;;;;;;16.08;4.90;;;6.40;99.90;;;;;;4988688;28;20048;-85
2022/05/08 03:14:09;;;;;;;16.85;4.57;;;6.40;99.90;;;;;;5002163;28;20065;-85
2022/05/08 03:16:35;;;;;;;13.63;4.30;;;6.40;99.90;;;;;;5001170;28;20052;-85
2022/05/08 03:19:01;;;;;;;16.40;4.78;;;6.40;99.90;;;;;;4998070;28;20046;-85
2022/05/08 03:21:27;;;;;;;15.05;4.63;;;6.50;99.90;;;;;;4998160;28;20389;-85
2022/05/08 03:23:53;;;;;;;14.45;4.28;;;6.40;99.90;;;;;;4998094;28;20050;-85
2022/05/08 03:26:22;;;;;;;18.10;4.18;;;6.40;99.90;;;;;;4997691;28;20505;-85
2022/05/08 03:28:48;;;;;;;18.10;4.35;;;6.90;99.90;;;;;;4997435;28;20116;-85
2022/05/08 03:31:13;;;;;;;21.13;4.70;;;6.70;99.90;;;;;;4997696;28;20038;-85
2022/05/08 03:33:40;;;;;;;18.42;4.32;;;6.20;99.90;;;;;;4997563;28;20054;-85
2022/05/08 03:36:12;;;;;;;15.77;4.10;;;6.20;99.90;;;;;;4997659;28;20045;-85
2022/05/08 03:38:45;;;;;;;13.30;4.10;;;6.10;99.90;;;;;;4996678;28;20057;-85
2022/05/08 03:41:15;;;;;;;15.52;4.43;;;6.00;99.90;;;;;;4998657;28;20041;-85
2022/05/08 03:43:42;;;;;;;12.70;4.50;;;6.00;99.90;;;;;;4997470;28;20077;-85
2022/05/08 03:46:08;;;;;;;19.42;4.78;;;6.10;99.90;;;;;;4981048;28;20111;-85
2022/05/08 03:48:35;;;;;;;17.92;5.18;;;6.30;99.90;;;;;;4996939;28;20054;-85
2022/05/08 03:51:01;;;;;;;13.38;4.35;;;6.00;99.90;;;;;;4980813;28;20520;-85
2022/05/08 03:53:27;;;;;;;19.23;4.93;;;6.10;99.90;;;;;;4980816;28;20046;-85
2022/05/08 03:55:56;;;;;;;14.95;4.00;;;6.20;99.90;;;;;;4997204;28;20054;-85
2022/05/08 03:58:21;;;;;;;15.48;4.65;;;6.20;99.90;;;;;;4997024;28;20046;-85
2022/05/08 04:00:47;;;;;;;14.00;4.70;;;6.30;99.90;;;;;;4997330;28;20393;-85
2022/05/08 04:03:12;;;;;;;13.90;4.22;;;6.20;99.90;;;;;;4998971;28;20515;-85
2022/05/08 04:05:38;;;;;;;18.30;4.60;;;6.20;99.90;;;;;;4981604;28;20541;-85
2022/05/08 04:08:04;;;;;;;15.85;4.22;;;6.20;99.90;;;;;;4996699;28;20049;-85
2022/05/08 04:10:30;;;;;;;14.00;4.65;;;6.10;99.90;;;;;;4996649;28;20080;-85
2022/05/08 04:12:55;;;;;;;15.63;4.55;;;6.20;99.90;;;;;;4997015;28;20030;-85
2022/05/08 04:18:07;;;;;;;13.63;4.72;;;6.20;99.90;;;;;;4996642;28;20037;-85
2022/05/08 04:20:32;;;;;;;16.40;4.22;;;6.30;99.90;;;;;;4996471;28;20129;-85
2022/05/08 04:25:42;;;;;;;14.73;4.00;;;6.40;99.90;;;;;;4996462;28;20042;-85
2022/05/08 04:28:08;;;;;;;16.00;3.75;;;6.40;99.90;;;;;;4996489;28;20042;-85
2022/05/08 04:30:34;;;;;;;14.52;3.95;;;6.30;99.90;;;;;;4980259;28;20129;-85
2022/05/08 04:33:00;;;;;;;12.35;4.45;;;6.90;99.90;;;;;;4996655;28;20045;-85
2022/05/08 04:35:26;;;;;;;15.90;3.80;;;6.40;99.90;;;;;;4996555;28;20474;-85
2022/05/08 04:37:52;;;;;;;13.23;3.80;;;6.30;99.90;;;;;;4980244;28;20058;-85
2022/05/08 04:40:19;;;;;;;12.00;3.90;;;6.70;99.90;;;;;;5014072;28;20433;-85
2022/05/08 04:42:44;;;;;;;13.25;4.25;;;6.30;99.90;;;;;;4996653;28;20046;-85
2022/05/08 04:45:10;;;;;;;15.40;4.53;;;6.30;99.90;;;;;;4996006;28;20116;-85
2022/05/08 04:47:36;;;;;;;10.60;3.63;;;6.30;99.90;;;;;;4981607;28;20506;-85
2022/05/08 04:50:02;;;;;;;17.45;4.20;;;6.40;99.90;;;;;;5002941;28;20045;-85
2022/05/08 04:52:28;;;;;;;12.18;3.50;;;6.40;99.90;;;;;;5023225;28;20034;-85
2022/05/08 04:54:53;;;;;;;15.02;4.18;;;6.40;99.90;;;;;;5006193;28;20072;-85
2022/05/08 04:57:19;;;;;;;16.13;4.10;;;6.40;99.90;;;;;;5021375;28;20050;-85
2022/05/08 04:59:44;;;;;;;11.23;3.53;;;6.40;99.90;;;;;;5017259;28;20077;-85
2022/05/08 05:02:10;;;;;;;11.20;3.53;;;6.50;99.90;;;;;;5020735;28;20477;-85
2022/05/08 05:04:36;;;;;;;14.15;4.57;;;6.60;99.90;;;;;;5002846;28;20042;-85
2022/05/08 05:07:02;;;;;;;11.05;3.58;;;6.70;99.90;;;;;;5002671;28;20042;-85
2022/05/08 05:09:27;;;;;;;13.23;3.95;;;6.70;99.90;;;;;;5002740;28;20057;-85
2022/05/08 05:11:53;;;;;;;9.00;3.30;;;6.80;99.90;;;;;;5002838;28;20076;-85
2022/05/08 05:14:19;;;;;;;11.63;3.67;;;6.80;99.90;;;;;;5002497;28;20058;-85
2022/05/08 05:16:46;;;;;;;10.57;3.17;;;6.80;99.90;;;;;;5002389;28;20401;-85
2022/05/08 05:19:11;;;;;;;10.70;3.65;;;6.90;99.90;;;;;;5002581;28;20378;-85
2022/05/08 05:21:37;;;;;;;14.02;3.72;;;7.00;99.90;;;;;;5002840;28;20112;-85
2022/05/08 05:24:03;;;;;;;10.73;3.53;;;7.00;99.90;;;;;;5002502;28;20132;-85
2022/05/08 05:26:28;;;;;;;14.50;3.30;;;7.10;99.90;;;;;;5002749;28;20076;-85
2022/05/08 05:28:54;;;;;;;12.00;3.30;;;7.20;99.90;;;;;;4986082;28;20501;-85
2022/05/08 05:31:20;;;;;;;8.50;2.90;;;7.90;99.90;;;;;;4986252;28;20089;-85
2022/05/08 05:33:46;;;;;;;11.40;3.20;;;7.80;99.90;;;;;;5002350;28;20046;-85
2022/05/08 05:36:12;;;;;;;10.32;2.90;;;7.40;99.90;;;;;;5002599;28;20105;-85
2022/05/08 05:38:39;;;;;;;12.68;2.88;;;7.50;99.90;;;;;;4985999;28;20084;-84
2022/05/08 05:41:05;;;;;;;12.70;2.95;;;7.60;99.90;;;;;;5020106;28;20046;-84
2022/05/08 05:43:32;;;;;;;7.63;2.85;;;7.60;99.90;;;;;;5002282;28;20049;-84
2022/05/08 05:48:41;;;;;;;9.38;2.42;;;7.80;99.90;;;;;;5002311;28;20529;-84
2022/05/08 05:51:07;;;;;;;8.98;2.42;;;7.90;99.90;;;;;;5020868;28;20125;-84
2022/05/08 05:53:34;;;;;;;10.48;2.47;;;8.00;99.90;;;;;;5003719;28;20037;-85
2022/05/08 05:56:00;;;;;;;12.43;2.65;;;8.40;99.90;;;;;;5003084;28;20046;-86
2022/05/08 05:58:26;;;;;;;7.32;2.67;;;8.30;99.90;;;;;;5002800;28;20494;-86
2022/05/08 06:00:51;;;;;;;8.77;2.70;;;8.60;99.90;;;;;;5001628;28;20045;-86
2022/05/08 06:03:17;;;;;;;9.50;2.92;;;7.70;99.90;;;;;;4983075;28;20038;-87
2022/05/08 06:05:43;;;;;;;8.23;2.33;;;8.70;99.90;;;;;;4999719;28;20042;-86
2022/05/08 06:08:09;;;;;;;7.60;2.50;;;8.60;99.90;;;;;;4999327;28;20049;-86
2022/05/08 06:10:36;;;;;;;11.90;2.10;;;9.50;99.90;;;;;;4999140;28;20496;-86
2022/05/08 06:13:02;;;;;;;9.82;2.42;;;9.60;99.90;;;;;;4999444;28;20042;-86
2022/05/08 06:15:27;;;;;;;9.93;2.90;;;8.90;99.90;;;;;;5017052;28;20501;-86
2022/05/08 06:17:53;;;;;;;11.38;2.63;;;9.00;99.90;;;;;;4999218;28;20034;-86
2022/05/08 06:20:19;;;;;;;6.65;2.20;;;9.50;99.90;;;;;;4998942;28;20050;-86
2022/05/08 06:22:45;;;;;;;8.88;2.40;;;9.10;99.90;;;;;;4998807;28;20038;-86
2022/05/08 06:25:12;;;;;;;7.05;1.95;;;9.70;99.90;;;;;;4999444;28;20058;-86
2022/05/08 06:27:38;;;;;;;8.13;2.30;;;9.30;99.90;;;;;;5016515;28;20539;-86
2022/05/08 06:30:05;;;;;;;7.80;2.00;;;9.40;99.90;;;;;;4999049;28;20390;-86
2022/05/08 06:32:30;;;;;;;7.95;2.50;;;9.50;99.90;;;;;;4998804;28;20056;-86
2022/05/08 06:34:56;;;;;;;6.10;2.10;;;9.60;99.90;;;;;;4998520;28;20046;-86
2022/05/08 06:37:22;;;;;;;6.90;2.10;;;9.70;99.90;;;;;;4998453;28;20049;-86
2022/05/08 06:39:47;;;;;;;5.85;1.83;;;10.10;99.90;;;;;;4998728;28;20042;-86
2022/05/08 06:42:16;;;;;;;8.80;2.10;;;10.00;99.90;;;;;;4998696;28;20042;-86
2022/05/08 06:44:43;;;;;;;7.65;1.98;;;10.10;99.90;;;;;;4995021;28;20077;-86
2022/05/08 06:47:08;;;;;;;4.97;1.70;;;10.20;99.90;;;;;;4994990;28;20047;-86
2022/05/08 06:49:34;;;;;;;6.70;1.48;;;10.30;99.90;;;;;;4994926;28;20038;-86
2022/05/08 06:52:00;;;;;;;8.80;1.73;;;10.40;99.90;;;;;;4994838;28;20564;-86
2022/05/08 06:54:26;;;;;;;4.65;1.50;;;10.60;99.90;;;;;;4995286;28;20082;-87
2022/05/08 06:56:59;;;;;;;6.13;1.80;;;10.50;99.90;;;;;;4995310;28;20050;-86
2022/05/08 07:02:11;;;;;;;5.35;1.45;;;10.20;99.90;;;;;;4995710;28;20094;-86
2022/05/08 07:04:38;;;;;;;5.80;1.63;;;10.20;99.90;;;;;;4994657;28;20055;-86
2022/05/08 07:07:03;;;;;;;5.45;1.50;;;10.10;99.90;;;;;;4994650;28;20050;-86
2022/05/08 07:09:29;;;;;;;6.55;1.70;;;10.20;99.90;;;;;;4978438;28;20052;-86
2022/05/08 07:11:56;;;;;;;8.27;1.80;;;10.40;99.90;;;;;;4995823;28;20046;-87
2022/05/08 07:14:22;;;;;;;8.48;1.58;;;10.50;99.90;;;;;;4994677;28;20082;-86
2022/05/08 07:16:47;;;;;;;6.47;1.40;;;10.80;99.90;;;;;;4994572;28;20088;-86
2022/05/08 07:19:13;;;;;;;4.82;1.52;;;10.60;99.90;;;;;;4994284;28;20046;-86
2022/05/08 07:21:39;;;;;;;7.70;1.67;;;10.40;99.90;;;;;;4994744;28;20042;-87
2022/05/08 07:24:05;;;;;;;5.60;1.67;;;10.60;99.90;;;;;;4994371;28;20093;-86
2022/05/08 07:26:36;;;;;;;6.28;1.55;;;10.30;99.90;;;;;;4994371;28;20121;-86
2022/05/08 07:29:04;;;;;;;10.35;2.28;;;10.40;99.90;;;;;;4994173;28;20573;-87
2022/05/08 07:31:31;;;;;;;6.43;1.70;;;10.40;99.90;;;;;;4994201;28;20058;-87
2022/05/08 07:36:41;;;;;;;8.10;1.65;;;10.70;99.90;;;;;;4994020;28;20050;-86
2022/05/08 07:39:06;;;;;;;7.15;1.80;;;10.50;99.90;;;;;;4994163;28;20440;-87
2022/05/08 07:41:32;;;;;;;7.90;2.00;;;10.60;99.90;;;;;;4993940;28;20043;-87
2022/05/08 07:43:58;;;;;;;5.35;1.50;;;10.70;99.90;;;;;;4994038;28;20054;-86
2022/05/08 07:46:25;;;;;;;10.00;1.80;;;10.80;99.90;;;;;;4994077;28;20529;-86
2022/05/08 07:48:51;;;;;;;6.95;1.90;;;11.10;99.90;;;;;;4977709;28;20054;-86
2022/05/08 07:51:17;;;;;;;7.20;1.70;;;11.20;99.90;;;;;;4995114;28;20057;-86
2022/05/08 07:53:42;;;;;;;9.70;1.85;;;11.30;99.90;;;;;;4993815;28;20405;-87
2022/05/08 07:58:33;;;;;;;7.60;1.65;;;11.40;99.90;;;;;;5021377;23;20085;-87
2022/05/08 08:01:03;;;;;;;9.15;1.70;;;11.40;99.90;;;;;;4996712;28;20049;-87
2022/05/08 08:03:30;;;;;;;5.10;1.40;;;11.60;99.90;;;;;;4996923;28;20053;-87
2022/05/08 08:05:57;;;;;;;7.32;1.70;;;11.70;99.90;;;;;;4980814;28;20497;-87
2022/05/08 08:08:25;;;;;;;5.45;1.83;;;11.60;99.90;;;;;;4980657;28;20049;-87
2022/05/08 08:10:56;;;;;;;8.48;2.17;;;11.60;99.90;;;;;;4997010;28;20050;-87
2022/05/08 08:13:23;;;;;;;7.28;1.88;;;11.90;99.90;;;;;;4980670;28;20488;-87
2022/05/08 08:15:49;;;;;;;9.48;2.03;;;11.90;99.90;;;;;;4980501;28;20045;-87
2022/05/08 08:18:15;;;;;;;7.30;2.00;;;11.70;99.90;;;;;;4996364;28;20052;-87
2022/05/08 08:20:42;;;;;;;6.13;1.60;;;11.80;99.90;;;;;;4996897;28;20374;-87
2022/05/08 08:23:08;;;;;;;5.93;1.58;;;12.00;99.90;;;;;;4980496;28;20038;-87
2022/05/08 08:25:34;;;;;;;6.65;1.70;;;12.20;99.90;;;;;;4996370;28;20096;-88
2022/05/08 08:28:00;;;;;;;10.57;2.83;;;13.00;99.90;;;;;;4980003;28;20042;-86
2022/05/08 08:30:26;;;;;;;5.28;1.90;;;12.60;99.90;;;;;;4996423;28;20042;-87
2022/05/08 08:32:51;;;;;;;6.65;2.05;;;12.60;99.90;;;;;;4980217;28;20084;-87
2022/05/08 08:35:17;;;;;;;9.55;1.80;;;12.90;99.90;;;;;;4980666;28;20501;-88
2022/05/08 08:37:43;;;;;;;7.50;1.75;;;12.90;99.90;;;;;;4996702;28;20128;-87
2022/05/08 08:40:09;;;;;;;8.10;1.85;;;13.10;99.90;;;;;;4996567;28;20136;-87
2022/05/08 08:42:42;;;;;;;7.30;1.70;;;13.30;99.90;;;;;;4996047;28;20042;-87
2022/05/08 08:47:52;;;;;;;5.85;1.40;;;13.50;99.90;;;;;;4996204;28;20054;-88
2022/05/08 08:50:22;;;;;;;5.70;1.70;;;13.60;99.90;;;;;;4980471;28;20104;-87
2022/05/08 08:52:48;;;;;;;9.77;1.83;;;13.90;99.90;;;;;;4979917;28;20053;-88
2022/05/08 08:55:16;;;;;;;6.35;1.85;;;13.80;99.90;;;;;;4980098;28;20042;-87
2022/05/08 08:57:43;;;;;;;5.47;1.70;;;13.90;99.90;;;;;;4992610;28;20050;-88
2022/05/08 09:00:09;;;;;;;6.90;1.50;;;13.90;99.90;;;;;;4992944;28;20050;-88
2022/05/08 09:02:35;;;;;;;6.60;1.65;;;13.90;99.90;;;;;;4994092;28;20481;-87
2022/05/08 09:05:06;;;;;;;9.23;1.85;;;14.00;99.90;;;;;;4992968;28;20065;-87
2022/05/08 09:07:39;;;;;;;6.07;1.65;;;14.10;99.90;;;;;;4976503;28;20058;-87
2022/05/08 09:10:25;;;;;;;8.88;2.00;;;14.30;99.90;;;;;;4992622;28;20057;-88
2022/05/08 09:12:54;;;;;;;6.47;1.77;;;14.50;99.90;;;;;;4976869;28;20043;-88
2022/05/08 09:15:28;;;;;;;6.88;1.60;;;14.60;99.90;;;;;;4992868;28;20065;-88
2022/05/08 09:17:59;;;;;;;5.88;1.75;;;14.50;99.90;;;;;;4992871;28;20055;-88
2022/05/08 09:20:29;;;;;;;5.82;1.60;;;14.50;99.90;;;;;;4976588;28;20077;-88
2022/05/08 09:23:09;;;;;;;6.50;1.88;;;14.50;99.90;;;;;;4992792;28;20051;-88
2022/05/08 09:25:43;;;;;;;5.10;1.73;;;14.40;99.90;;;;;;4992802;28;20042;-88
2022/05/08 09:28:10;;;;;;;6.85;1.50;;;14.30;99.90;;;;;;4992605;28;20478;-88
2022/05/08 09:30:55;;;;;;;5.38;1.60;;;14.60;99.90;;;;;;4976383;28;20058;-88
2022/05/08 09:33:30;;;;;;;6.50;1.70;;;14.60;99.90;;;;;;4992867;28;20100;-88
2022/05/08 09:35:57;;;;;;;7.57;2.05;;;14.60;99.90;;;;;;4992554;28;20057;-87
2022/05/08 09:38:49;;;;;;;8.48;1.65;;;14.70;99.90;;;;;;4996952;28;20386;-88
2022/05/08 09:41:17;;;;;;;5.07;1.73;;;14.90;99.90;;;;;;4999107;28;20050;-87
2022/05/08 09:43:43;;;;;;;7.18;2.30;;;15.10;99.90;;;;;;4996351;28;20520;-88
2022/05/08 09:46:09;;;;;;;6.20;1.63;;;15.20;99.90;;;;;;4996444;28;20046;-91
2022/05/08 09:48:36;;;;;;;6.45;1.83;;;15.10;99.90;;;;;;4979545;28;20052;-88
2022/05/08 09:51:07;;;;;;;8.38;2.03;;;15.10;99.90;;;;;;4996192;28;20092;-87
2022/05/08 09:53:35;;;;;;;5.32;1.48;;;15.00;99.90;;;;;;4996186;28;20133;-88
2022/05/08 09:56:09;;;;;;;7.47;1.70;;;15.00;99.90;;;;;;4979811;28;20046;-88
2022/05/08 09:58:36;;;;;;;6.93;2.08;;;15.00;99.90;;;;;;4995721;28;20062;-88
2022/05/08 10:01:02;;;;;;;5.60;1.60;;;15.20;99.90;;;;;;4979801;28;20042;-88
2022/05/08 10:03:30;;;;;;;7.78;1.88;;;15.30;99.90;;;;;;4979904;28;20149;-88
2022/05/08 10:05:59;;;;;;;6.68;1.75;;;15.40;99.90;;;;;;4995600;28;20057;-88
2022/05/08 10:08:28;;;;;;;7.05;1.60;;;15.40;99.90;;;;;;4995566;28;20048;-88
2022/05/08 10:14:05;;;;;;;7.20;1.48;;;15.70;99.90;;;;;;4995479;28;20059;-89
2022/05/08 10:16:55;;;;;;;6.53;1.50;;;15.70;99.90;;;;;;4995719;28;20133;-88
2022/05/08 10:19:27;;;;;;;6.32;1.50;;;15.90;99.90;;;;;;4995774;28;20046;-88
2022/05/08 10:21:55;;;;;;;6.57;1.75;;;15.80;99.90;;;;;;4995555;28;20093;-87
2022/05/08 10:24:34;;;;;;;5.95;1.90;;;16.10;99.90;;;;;;4995539;28;20137;-88
2022/05/08 10:27:16;;;;;;;7.05;1.50;;;15.90;99.90;;;;;;4995445;28;20042;-88
2022/05/08 10:29:52;;;;;;;7.55;2.15;;;16.00;99.90;;;;;;4995145;28;20046;-88
2022/05/08 10:32:31;;;;;;;;;;;16.00;99.90;;;;;;4979733;28;20050;-88
2022/05/08 10:35:19;;;;;;;6.28;1.75;;;15.80;99.90;;;;;;4994842;28;19929;-88
2022/05/08 10:38:03;;;;;;;5.75;1.50;;;16.20;99.90;;;;;;4995442;28;20048;-88
2022/05/08 10:40:28;;;;;;;8.10;2.03;;;16.20;99.90;;;;;;5006443;28;20053;-89
2022/05/08 10:43:00;;;;;;;5.75;1.80;;;16.60;99.90;;;;;;5006633;28;20043;-88
2022/05/08 10:45:29;;;;;;;6.07;1.55;;;16.60;99.90;;;;;;5002363;28;20046;-88
2022/05/08 10:47:55;;;;;;;5.97;1.80;;;16.70;99.90;;;;;;4994929;28;20050;-89
2022/05/08 10:50:20;;;;;;;7.88;1.70;;;16.80;99.90;;;;;;4995098;28;20080;-87
2022/05/08 10:52:47;;;;;;;6.13;1.58;;;16.80;99.90;;;;;;4995770;28;20050;-89
2022/05/08 10:55:16;;;;;;;5.35;1.70;;;16.80;99.90;;;;;;4994982;28;20046;-88
2022/05/08 10:57:49;;;;;;;8.27;1.80;;;16.90;99.90;;;;;;4978670;28;20073;-87
2022/05/08 11:00:21;;;;;;;4.63;1.70;;;16.90;99.90;;;;;;4994926;28;20433;-87
2022/05/08 11:02:51;;;;;;;8.13;1.83;;;16.90;99.90;;;;;;4994926;28;20078;-87
2022/05/08 11:05:19;;;;;;;6.93;1.55;;;17.10;99.90;;;;;;4978868;28;20152;-87
2022/05/08 11:08:00;;;;;;;7.20;1.92;;;17.20;99.90;;;;;;4978805;28;20486;-90
2022/05/08 11:10:26;;;;;;;6.13;1.52;;;17.30;99.90;;;;;;4994940;28;20038;-88
2022/05/08 11:13:09;;;;;;;5.25;1.40;;;17.40;99.90;;;;;;4978274;28;20046;-88
2022/05/08 11:15:42;;;;;;;4.68;1.38;;;17.40;99.90;;;;;;4994843;28;20046;-85
2022/05/08 11:18:17;;;;;;;5.68;1.70;;;17.40;99.90;;;;;;4994063;28;20046;-86
2022/05/08 11:20:45;;;;;;;7.50;1.83;;;17.40;99.90;;;;;;4978359;28;20050;-85
2022/05/08 11:23:15;;;;;;;5.88;1.80;;;17.50;99.90;;;;;;4978319;28;20042;-86
2022/05/08 11:25:48;;;;;;;4.95;1.65;;;17.40;99.90;;;;;;4994688;28;20101;-84
2022/05/08 11:28:15;;;;;;;8.38;1.88;;;17.70;99.90;;;;;;4994300;28;20050;-85
2022/05/08 11:30:42;;;;;;;5.93;1.42;;;17.80;99.90;;;;;;4996760;28;20042;-84
2022/05/08 11:36:06;;;;;;;7.55;1.88;;;17.70;99.90;;;;;;4995624;28;20057;-83
2022/05/08 11:38:41;;;;;;;7.25;2.00;;;17.70;99.90;;;;;;4994311;28;20571;-84
2022/05/08 11:41:33;;;;;;;5.57;1.60;;;17.80;99.90;;;;;;4995510;28;20076;-82
2022/05/08 11:44:02;;;;;;;5.03;1.80;;;17.90;99.90;;;;;;4994098;28;20042;-83
2022/05/08 11:46:40;;;;;;;6.32;1.80;;;17.70;99.90;;;;;;4994059;28;20050;-84
2022/05/08 11:49:31;;;;;;;7.47;1.80;;;17.80;99.90;;;;;;4994005;28;20053;-83
2022/05/08 11:52:04;;;;;;;7.88;1.80;;;18.00;99.90;;;;;;4994184;28;20050;-83
2022/05/08 11:54:32;;;;;;;5.15;1.50;;;18.00;99.90;;;;;;4999296;28;20082;-84
2022/05/08 11:57:20;;;;;;;7.45;1.80;;;18.30;99.90;;;;;;4997527;28;20508;-87
2022/05/08 12:00:06;;;;;;;10.77;2.00;;;18.60;99.90;;;;;;4996539;28;20065;-83
2022/05/08 12:02:51;;;;;;;7.07;1.60;;;18.50;99.90;;;;;;4997156;28;20053;-83
2022/05/08 12:05:19;;;;;;;6.72;1.60;;;18.60;99.90;;;;;;4996929;28;20057;-87
2022/05/08 12:07:48;;;;;;;6.82;1.70;;;18.60;99.90;;;;;;4997752;28;20070;-82
2022/05/08 12:10:16;;;;;;;6.15;1.73;;;18.70;99.90;;;;;;5014681;28;20042;-87
2022/05/08 12:12:42;;;;;;;6.03;1.50;;;18.90;99.90;;;;;;4996703;28;20042;-85
2022/05/08 12:15:11;;;;;;;7.38;1.92;;;18.90;99.90;;;;;;4996827;28;20244;-83
2022/05/08 12:17:39;;;;;;;5.75;1.52;;;19.10;99.90;;;;;;5015304;28;20073;-87
2022/05/08 12:20:09;;;;;;;5.00;1.67;;;19.20;99.40;;;;;;5015092;28;20052;-85
2022/05/08 12:22:35;;;;;;;8.27;2.00;;;19.10;99.00;;;;;;5015521;28;20500;-86
2022/05/08 12:25:01;;;;;;;5.53;1.70;;;19.10;98.90;;;;;;5014833;28;20128;-84
2022/05/08 12:27:28;;;;;;;7.88;1.98;;;19.10;98.90;;;;;;4996952;28;20044;-83
2022/05/08 12:29:53;;;;;;;6.57;1.90;;;19.00;99.00;;;;;;5014517;28;20378;-83
2022/05/08 12:32:24;;;;;;;8.23;1.95;;;19.10;98.80;;;;;;5014368;28;20121;-84
2022/05/08 12:34:51;;;;;;;6.05;1.65;;;19.10;97.70;;;;;;4996890;28;20057;-83
2022/05/08 12:37:17;;;;;;;8.57;1.77;;;19.10;98.20;;;;;;4996987;28;20098;-83
2022/05/08 12:39:43;;;;;;;5.72;1.88;;;19.30;98.40;;;;;;4996855;28;20045;-83
2022/05/08 12:42:10;;;;;;;5.93;2.00;;;19.40;98.70;;;;;;5015226;28;20045;-86
2022/05/08 12:44:36;;;;;;;7.78;2.20;;;19.50;98.30;;;;;;4996887;28;20041;-83
2022/05/08 12:47:06;;;;;;;5.63;1.80;;;19.50;97.30;;;;;;4996525;28;20133;-86
2022/05/08 12:49:33;;;;;;;5.20;1.77;;;19.50;97.10;;;;;;4996414;28;20543;-84
2022/05/08 12:51:59;;;;;;;5.65;1.60;;;19.20;95.80;;;;;;4996680;28;20081;-82
2022/05/08 12:54:24;;;;;;;8.82;1.90;;;19.50;95.60;;;;;;5014311;28;20053;-85
2022/05/08 12:56:51;;;;;;;5.85;1.85;;;19.60;96.30;;;;;;5013937;28;20042;-82
2022/05/08 13:02:01;;;;;;;5.57;1.73;;;19.70;96.10;;;;;;5014393;28;20069;-83
2022/05/08 13:04:26;;;;;;;5.65;1.80;;;19.50;94.50;;;;;;4996526;28;20127;-87
2022/05/08 13:06:52;;;;;;;5.95;1.70;;;19.60;95.00;;;;;;4980656;28;20090;-87
2022/05/08 13:09:18;;;;;;;6.07;1.77;;;19.70;95.20;;;;;;4996280;28;20050;-85
2022/05/08 13:11:44;;;;;;;7.32;1.90;;;19.90;95.90;;;;;;4998631;28;20042;-82
2022/05/08 13:14:09;;;;;;;5.90;1.65;;;20.10;94.10;;;;;;5000033;28;20104;-84
2022/05/08 13:16:35;;;;;;;4.20;1.55;;;20.10;94.20;;;;;;5017861;28;20092;-85
2022/05/08 13:19:02;;;;;;;8.15;1.63;;;20.20;93.90;;;;;;5000067;28;20085;-84
2022/05/08 13:21:28;;;;;;;7.00;1.60;;;19.70;92.30;;;;;;5000066;28;20119;-85